Time;durP1;ratioP1;P1;durP2;ratioP2;P2;SDS_P1;SDS_P2;PMS_P1;PMS_P2;Temp;Humidity;BMP_temperature;BMP_pressure;BME280_temperature;BME280_humidity;BME280_pressure;Samples;Min_cycle;Max_cycle;Signal;HPM_P1;HPM_P2
2021/03/05 00:02:18;;;;;;;14.82;9.95;;;;;;;7.42;86.69;98865.88;5013488;28;20057;-64
2021/03/05 00:04:43;;;;;;;15.98;9.88;;;;;;;7.43;87.31;98877.88;5013657;28;20029;-65
2021/03/05 00:07:08;;;;;;;17.10;11.35;;;;;;;7.05;90.08;98880.56;5012520;28;20022;-68
2021/03/05 00:09:34;;;;;;;26.55;17.15;;;;;;;6.60;89.34;98887.50;5013669;28;20049;-64
2021/03/05 00:11:59;;;;;;;30.20;19.20;;;;;;;6.52;89.84;98898.66;5013462;28;20104;-65
2021/03/05 00:14:24;;;;;;;31.27;19.25;;;;;;;6.60;89.51;98896.94;5013371;28;20053;-65
2021/03/05 00:16:50;;;;;;;29.35;19.58;;;;;;;6.41;89.98;98902.09;5005292;28;20033;-64
2021/03/05 00:19:15;;;;;;;26.80;18.88;;;;;;;6.53;89.77;98900.41;5012145;28;20028;-75
2021/03/05 00:21:41;;;;;;;31.67;19.50;;;;;;;6.60;89.92;98907.25;5013251;28;20026;-75
2021/03/05 00:24:07;;;;;;;26.20;17.73;;;;;;;6.49;89.99;98908.97;5013556;28;20025;-76
2021/03/05 00:26:32;;;;;;;30.55;20.80;;;;;;;6.19;92.24;98915.81;5013358;28;20053;-76
2021/03/05 00:28:58;;;;;;;33.05;21.15;;;;;;;6.40;92.11;98910.66;5013136;28;20471;-76
2021/03/05 00:31:23;;;;;;;33.78;22.30;;;;;;;6.41;92.17;98907.25;5013129;28;20045;-75
2021/03/05 00:33:48;;;;;;;34.53;21.58;;;;;;;6.52;91.47;98914.97;5013024;28;20512;-75
2021/03/05 00:36:14;;;;;;;33.30;22.98;;;;;;;6.41;91.60;98912.38;5011914;28;20034;-74
2021/03/05 00:38:39;;;;;;;31.90;22.23;;;;;;;6.40;90.39;98912.41;5013075;28;20060;-74
2021/03/05 00:41:04;;;;;;;30.70;21.20;;;;;;;6.26;90.33;98912.38;5012910;28;20030;-75
2021/03/05 00:43:30;;;;;;;29.30;20.67;;;;;;;6.07;90.24;98926.91;5012915;28;20104;-66
2021/03/05 00:45:55;;;;;;;29.17;21.65;;;;;;;5.95;90.72;98920.88;5004708;28;20463;-66
2021/03/05 00:48:21;;;;;;;29.48;22.48;;;;;;;6.05;89.81;98927.78;5012974;28;20026;-74
2021/03/05 00:50:46;;;;;;;31.77;22.13;;;;;;;6.02;89.38;98932.91;5012840;28;20026;-74
2021/03/05 00:53:12;;;;;;;30.80;21.67;;;;;;;6.05;89.92;98932.91;5013035;28;20021;-75
2021/03/05 00:55:37;;;;;;;33.45;24.42;;;;;;;6.17;89.96;98928.66;5013068;28;20100;-75
2021/03/05 00:58:02;;;;;;;35.20;24.50;;;;;;;6.10;89.23;98931.22;5012777;28;20643;-74
2021/03/05 05:15:57;;;;;;;14.67;10.73;;;;;;;4.19;84.91;99153.09;5739804;23;19925;-63
2021/03/05 05:18:22;;;;;;;13.80;9.75;;;;;;;3.86;84.84;99150.06;4993032;28;20109;-63
2021/03/05 05:20:48;;;;;;;13.70;9.90;;;;;;;4.11;85.13;99155.56;4992682;28;20343;-63
2021/03/05 05:23:13;;;;;;;13.75;10.45;;;;;;;3.86;86.39;99155.19;4992792;28;20109;-63
2021/03/05 05:25:39;;;;;;;13.40;9.75;;;;;;;3.97;83.52;99163.06;4992660;28;20066;-63
2021/03/05 05:28:04;;;;;;;12.48;9.63;;;;;;;4.00;85.63;99164.78;4992825;28;20031;-63
2021/03/05 05:30:30;;;;;;;14.00;9.52;;;;;;;3.93;84.71;99163.00;4993319;28;20046;-65
2021/03/05 05:32:55;;;;;;;13.13;9.75;;;;;;;3.86;84.99;99168.00;4992676;28;20514;-65
2021/03/05 05:35:22;;;;;;;12.60;9.52;;;;;;;3.82;85.31;99173.94;4992726;28;20089;-66
2021/03/05 05:37:48;;;;;;;14.35;10.10;;;;;;;4.07;85.36;99166.63;4936544;28;20092;-66
2021/03/05 05:40:14;;;;;;;13.98;10.02;;;;;;;4.03;84.92;99172.53;4992534;28;20034;-66
2021/03/05 05:42:39;;;;;;;14.55;9.93;;;;;;;3.92;84.40;99174.94;4992425;28;20026;-66
2021/03/05 05:45:05;;;;;;;13.35;9.82;;;;;;;4.03;85.43;99172.53;4988879;28;20105;-66
2021/03/05 05:47:35;;;;;;;13.43;9.65;;;;;;;3.75;85.38;99179.81;4985909;28;20026;-65
2021/03/05 05:50:06;;;;;;;18.50;10.60;;;;;;;3.77;85.82;99175.59;5007733;28;20022;-66
2021/03/05 05:52:32;;;;;;;13.30;10.38;;;;;;;3.91;84.13;99185.16;4992364;28;20027;-65
2021/03/05 05:54:59;;;;;;;14.05;10.02;;;;;;;4.08;85.08;99176.03;4992594;28;20065;-65
2021/03/05 05:57:26;;;;;;;14.70;9.68;;;;;;;3.94;84.89;99185.22;4992404;28;20027;-65
2021/03/05 05:59:52;;;;;;;15.45;10.68;;;;;;;4.17;85.54;99181.28;4992292;28;20030;-65
2021/03/05 06:02:19;;;;;;;14.90;10.52;;;;;;;3.85;85.37;99186.78;4993699;28;20026;-65
2021/03/05 06:04:45;;;;;;;18.92;11.00;;;;;;;4.00;83.79;99187.88;4996321;28;20033;-65
2021/03/05 06:07:11;;;;;;;14.18;9.65;;;;;;;3.96;85.13;99201.47;4996210;28;20387;-65
2021/03/05 06:09:36;;;;;;;15.27;10.27;;;;;;;3.89;83.77;99199.66;4996498;28;20102;-65
2021/03/05 06:12:15;;;;;;;14.70;10.45;;;;;;;3.92;84.38;99204.84;4996111;28;20590;-65
2021/03/05 06:14:41;;;;;;;16.33;10.85;;;;;;;3.70;84.57;99209.63;4993918;28;20023;-65
2021/03/05 06:17:07;;;;;;;17.27;11.45;;;;;;;4.01;85.15;99204.97;4987866;28;20030;-65
2021/03/05 06:19:33;;;;;;;17.35;10.88;;;;;;;3.95;84.41;99210.00;4994736;28;20088;-65
2021/03/05 06:21:59;;;;;;;17.35;11.10;;;;;;;3.91;84.56;99215.91;4996007;28;20026;-65
2021/03/05 06:24:26;;;;;;;16.88;10.98;;;;;;;4.03;85.17;99218.69;4996160;28;20030;-65
2021/03/05 06:26:55;;;;;;;16.92;10.65;;;;;;;3.84;85.08;99228.66;4995801;28;20506;-65
2021/03/05 06:29:24;;;;;;;22.40;12.98;;;;;;;3.72;86.44;99228.44;4996053;28;20553;-65
2021/03/05 06:32:00;;;;;;;16.55;11.50;;;;;;;3.98;84.15;99230.56;4995709;28;20084;-65
2021/03/05 06:34:27;;;;;;;17.52;10.60;;;;;;;3.83;84.75;99237.19;4996092;28;20050;-65
2021/03/05 06:36:56;;;;;;;21.92;13.02;;;;;;;3.81;84.92;99237.97;4995627;28;20368;-65
2021/03/05 06:39:26;;;;;;;20.13;13.67;;;;;;;3.69;85.34;99248.91;4995725;28;20026;-65
2021/03/05 06:42:05;;;;;;;18.45;11.85;;;;;;;3.93;82.90;99250.16;4995572;28;20750;-65
2021/03/05 06:44:31;;;;;;;20.33;14.25;;;;;;;3.54;86.93;99246.94;4993316;28;20299;-65
2021/03/05 06:47:09;;;;;;;18.67;13.02;;;;;;;3.79;85.95;99250.78;4987427;28;20109;-65
2021/03/05 06:49:35;;;;;;;23.15;12.77;;;;;;;3.69;85.75;99253.16;4994438;28;20274;-65
2021/03/05 06:52:00;;;;;;;23.52;12.95;;;;;;;3.79;83.94;99255.91;4995334;28;20037;-65
2021/03/05 06:54:31;;;;;;;21.25;12.73;;;;;;;3.54;84.58;99264.00;4995522;28;20034;-65
2021/03/05 06:56:57;;;;;;;24.88;14.00;;;;;;;3.38;86.60;99272.22;4976539;28;20031;-65
2021/03/05 06:59:23;;;;;;;18.65;12.20;;;;;;;3.60;85.67;99269.25;4978849;28;20033;-65
2021/03/05 07:01:48;;;;;;;24.73;13.60;;;;;;;3.12;88.19;99280.28;4986721;28;20199;-65
2021/03/05 07:04:31;;;;;;;22.20;13.50;;;;;;;3.50;86.54;99275.03;4980109;28;20433;-65
2021/03/05 07:07:01;;;;;;;21.25;13.15;;;;;;;3.54;87.20;99274.25;4965458;28;20022;-65
2021/03/05 07:09:29;;;;;;;20.42;12.90;;;;;;;3.74;86.40;99278.03;4985894;28;20019;-65
2021/03/05 07:11:55;;;;;;;23.60;13.07;;;;;;;3.73;86.56;99275.44;5003127;28;20038;-65
2021/03/05 07:14:31;;;;;;;21.30;13.00;;;;;;;3.63;86.05;99283.78;4981670;28;20383;-65
2021/03/05 07:16:58;;;;;;;27.45;14.85;;;;;;;3.64;86.13;99290.66;4984816;28;20437;-65
2021/03/05 07:19:26;;;;;;;19.63;13.50;;;;;;;3.54;87.88;99289.63;4986093;28;20157;-65
2021/03/05 07:21:52;;;;;;;23.08;14.32;;;;;;;3.50;87.77;99290.41;4987432;28;20030;-65
2021/03/05 07:24:23;;;;;;;20.13;13.20;;;;;;;3.65;86.98;99293.25;4979288;28;20049;-65
2021/03/05 07:26:53;;;;;;;23.52;13.63;;;;;;;3.11;88.12;99304.16;4966715;28;20026;-65
2021/03/05 07:29:24;;;;;;;24.98;14.02;;;;;;;3.12;88.15;99310.16;4989384;28;20034;-65
2021/03/05 07:31:56;;;;;;;39.13;19.75;;;;;;;3.37;87.60;99311.50;4982173;28;20050;-65
2021/03/05 07:34:22;;;;;;;333.50;95.65;;;;;;;3.27;87.50;99311.31;4980220;28;20034;-65
2021/03/05 07:36:50;;;;;;;45.53;20.85;;;;;;;3.31;87.44;99318.22;4990142;28;20414;-65
2021/03/05 07:39:22;;;;;;;22.15;14.02;;;;;;;2.98;86.67;99322.66;4993318;28;20033;-65
2021/03/05 07:41:51;;;;;;;24.42;15.07;;;;;;;2.91;87.97;99325.94;4994415;28;20034;-65
2021/03/05 07:44:17;;;;;;;23.07;13.23;;;;;;;3.14;86.76;99328.94;4992154;28;20019;-65
2021/03/05 07:46:44;;;;;;;23.02;14.50;;;;;;;3.20;86.93;99329.97;4986189;28;20030;-66
2021/03/05 07:49:10;;;;;;;24.67;14.48;;;;;;;3.48;86.41;99330.47;4994427;28;20491;-66
2021/03/05 07:51:37;;;;;;;24.23;15.27;;;;;;;3.46;86.95;99329.59;4994415;28;20391;-66
2021/03/05 07:54:05;;;;;;;25.35;13.95;;;;;;;3.96;84.43;99332.22;4994488;28;20031;-66
2021/03/05 07:56:49;;;;;;;21.98;13.07;;;;;;;3.80;83.28;99334.50;4994237;28;20487;-66
2021/03/05 07:59:42;;;;;;;23.98;14.98;;;;;;;3.45;85.63;99340.69;4994323;28;20458;-66
2021/03/05 08:02:08;;;;;;;25.00;14.98;;;;;;;3.56;86.18;99341.75;5009135;28;20026;-66
2021/03/05 08:07:18;;;;;;;26.73;15.95;;;;;;;3.73;84.80;99342.94;4994068;28;20080;-65
2021/03/05 08:09:43;;;;;;;22.08;13.48;;;;;;;3.27;83.98;99357.41;4994135;28;20120;-66
2021/03/05 08:12:45;;;;;;;24.25;13.63;;;;;;;3.20;85.46;99355.56;4994114;28;20121;-66
2021/03/05 08:15:11;;;;;;;25.60;15.07;;;;;;;3.56;84.56;99359.69;4989505;28;20599;-66
2021/03/05 08:17:46;;;;;;;26.90;14.23;;;;;;;3.72;85.06;99356.56;4987711;28;20054;-66
2021/03/05 08:20:17;;;;;;;22.83;14.10;;;;;;;3.65;83.88;99357.28;4993655;28;20038;-66
2021/03/05 08:23:03;;;;;;;25.17;14.65;;;;;;;3.90;82.92;99360.31;4993705;28;20030;-66
2021/03/05 08:25:36;;;;;;;23.92;14.55;;;;;;;3.82;83.02;99355.94;4993803;28;20022;-66
2021/03/05 08:28:06;;;;;;;28.90;17.25;;;;;;;3.84;83.53;99361.94;4992618;28;20035;-66
2021/03/05 08:30:34;;;;;;;25.55;15.07;;;;;;;4.22;82.17;99364.31;4993637;28;20101;-66
2021/03/05 08:33:03;;;;;;;27.88;14.13;;;;;;;4.17;81.95;99373.63;4993660;28;20109;-66
2021/03/05 08:35:28;;;;;;;28.20;16.67;;;;;;;4.66;81.00;99371.84;4993769;28;20026;-66
2021/03/05 08:37:54;;;;;;;24.08;14.90;;;;;;;4.50;80.46;99380.16;4993622;28;20368;-66
2021/03/05 08:40:21;;;;;;;28.10;15.55;;;;;;;4.44;83.51;99377.47;4993479;28;20068;-66
2021/03/05 08:42:57;;;;;;;19.83;12.93;;;;;;;4.78;81.01;99379.72;4993338;28;20025;-66
2021/03/05 08:45:24;;;;;;;18.58;12.13;;;;;;;4.68;80.19;99377.84;4987100;28;20030;-66
2021/03/05 08:47:50;;;;;;;20.17;12.48;;;;;;;4.50;80.83;99375.03;4989168;28;20439;-66
2021/03/05 08:50:18;;;;;;;22.27;13.93;;;;;;;4.77;80.31;99390.81;5008662;28;20022;-66
2021/03/05 08:52:45;;;;;;;20.58;13.50;;;;;;;4.66;80.24;99386.38;4993173;28;20030;-66
2021/03/05 08:55:12;;;;;;;22.63;14.32;;;;;;;4.63;81.02;99385.47;4993247;28;20026;-66
2021/03/05 08:57:47;;;;;;;23.15;15.27;;;;;;;4.41;82.28;99385.13;4993043;28;20037;-66
2021/03/05 09:00:15;;;;;;;27.58;17.20;;;;;;;4.09;81.99;99388.00;4993371;28;20049;-66
2021/03/05 09:02:46;;;;;;;19.95;12.98;;;;;;;4.33;80.35;99387.56;4993145;28;20046;-66
2021/03/05 09:05:13;;;;;;;22.83;13.48;;;;;;;4.30;80.85;99393.53;4993042;28;20042;-66
2021/03/05 09:07:53;;;;;;;20.70;11.63;;;;;;;4.57;81.73;99397.38;4993069;28;20022;-66
2021/03/05 09:10:20;;;;;;;23.05;12.82;;;;;;;4.90;78.95;99397.88;4993024;28;20526;-66
2021/03/05 09:12:56;;;;;;;20.33;12.60;;;;;;;4.49;80.18;99393.81;4992863;28;20036;-66
2021/03/05 09:15:24;;;;;;;18.67;12.02;;;;;;;4.67;79.61;99403.50;4986528;28;20081;-66
2021/03/05 09:17:50;;;;;;;18.38;12.00;;;;;;;4.80;79.67;99396.03;4960808;28;20606;-76
2021/03/05 09:20:15;;;;;;;21.00;12.63;;;;;;;4.84;79.84;99402.06;4961419;28;20039;-68
2021/03/05 09:22:41;;;;;;;18.67;12.13;;;;;;;4.68;80.92;99403.53;4962051;28;20027;-76
2021/03/05 09:25:09;;;;;;;19.67;12.63;;;;;;;4.95;79.64;99408.22;4964490;28;20488;-76
2021/03/05 09:27:37;;;;;;;18.08;11.85;;;;;;;4.96;78.42;99417.66;4963977;28;20089;-75
2021/03/05 09:30:17;;;;;;;22.95;13.57;;;;;;;5.19;78.01;99410.28;4960344;28;20502;-75
2021/03/05 09:32:47;;;;;;;20.92;12.35;;;;;;;5.16;78.97;99410.22;4961576;28;20039;-75
2021/03/05 09:35:13;;;;;;;;;;;;;;;5.05;79.03;99412.66;4962142;28;20041;-75
2021/03/05 09:37:38;;;;;;;20.13;12.18;;;;;;;5.07;78.27;99420.34;4977115;28;19914;-75
2021/03/05 09:40:08;;;;;;;16.85;11.63;;;;;;;5.03;78.38;99416.00;4959176;28;20039;-75
2021/03/05 09:42:42;;;;;;;18.23;11.50;;;;;;;4.84;78.80;99420.91;4964309;28;20030;-75
2021/03/05 09:45:08;;;;;;;19.80;11.68;;;;;;;4.92;78.25;99420.13;4982721;28;20487;-75
2021/03/05 09:47:49;;;;;;;19.55;11.95;;;;;;;4.73;79.49;99414.72;4976948;28;20031;-75
2021/03/05 09:50:17;;;;;;;21.08;11.68;;;;;;;4.93;78.42;99416.72;4941657;28;20077;-75
2021/03/05 09:52:42;;;;;;;17.60;12.50;;;;;;;5.09;77.49;99422.13;4932426;28;20489;-75
2021/03/05 09:55:08;;;;;;;17.63;11.77;;;;;;;5.18;76.95;99428.25;4925386;28;20730;-75
2021/03/05 09:57:38;;;;;;;18.20;12.68;;;;;;;5.07;78.30;99430.63;4925386;28;20031;-75
2021/03/05 10:00:04;;;;;;;;;;;;;;;5.63;76.31;99438.25;4912308;28;20038;-75
2021/03/05 10:02:35;;;;;;;17.90;11.32;;;;;;;5.71;76.53;99436.66;4909436;28;19918;-75
2021/03/05 10:05:01;;;;;;;17.58;10.77;;;;;;;4.77;77.47;99442.16;4900859;28;20087;-76
2021/03/05 10:07:26;;;;;;;16.15;10.85;;;;;;;5.51;77.00;99443.22;4898868;28;20039;-75
2021/03/05 10:10:06;;;;;;;17.70;11.73;;;;;;;5.79;74.88;99435.00;4888559;28;20032;-74
2021/03/05 10:12:31;;;;;;;20.67;11.38;;;;;;;5.87;75.34;99443.69;4873816;28;20027;-76
2021/03/05 10:15:05;;;;;;;16.45;11.27;;;;;;;5.73;76.02;99445.22;4869270;28;25482;-76
2021/03/05 10:17:38;;;;;;;16.27;11.05;;;;;;;5.86;75.72;99441.97;4864665;28;20033;-76
2021/03/05 10:20:04;;;;;;;15.95;10.60;;;;;;;6.28;73.78;99440.72;4883429;28;20066;-75
2021/03/05 10:22:32;;;;;;;21.13;11.65;;;;;;;6.02;74.83;99444.75;4885895;28;20444;-76
2021/03/05 10:24:57;;;;;;;20.98;12.90;;;;;;;5.79;75.83;99440.16;4901622;28;20033;-75
2021/03/05 10:27:23;;;;;;;18.45;11.75;;;;;;;5.02;75.14;99448.53;4884154;28;20388;-75
2021/03/05 10:29:57;;;;;;;22.65;12.50;;;;;;;4.64;78.80;99455.63;4895196;28;20117;-76
2021/03/05 10:32:23;;;;;;;18.83;11.57;;;;;;;4.39;78.80;99455.22;4906081;28;20116;-76
2021/03/05 10:34:51;;;;;;;18.10;11.90;;;;;;;4.86;77.07;99457.72;4894294;28;20046;-75
2021/03/05 10:37:17;;;;;;;21.77;12.35;;;;;;;5.38;74.63;99457.63;4912676;28;20034;-75
2021/03/05 10:39:46;;;;;;;20.90;12.77;;;;;;;5.52;73.42;99460.41;4914078;28;20027;-75
2021/03/05 10:42:16;;;;;;;20.75;11.55;;;;;;;5.54;73.07;99468.97;4865964;28;20070;-75
2021/03/05 10:44:43;;;;;;;21.92;10.90;;;;;;;5.83;73.19;99459.06;4869800;28;20027;-75
2021/03/05 10:47:10;;;;;;;18.42;10.98;;;;;;;5.38;72.61;99468.78;4871427;28;20038;-75
2021/03/05 10:49:37;;;;;;;17.33;11.60;;;;;;;5.03;75.17;99467.38;4873793;28;20030;-75
2021/03/05 10:52:07;;;;;;;23.83;11.60;;;;;;;5.74;74.42;99475.22;4869543;28;20047;-75
2021/03/05 10:54:33;;;;;;;19.83;11.15;;;;;;;5.73;73.32;99480.38;4860365;28;20027;-75
2021/03/05 10:56:59;;;;;;;17.48;10.82;;;;;;;4.83;74.79;99473.06;4884715;28;20038;-76
2021/03/05 10:59:25;;;;;;;18.85;11.70;;;;;;;5.36;74.58;99475.56;4891999;28;20022;-75
2021/03/05 11:01:53;;;;;;;21.88;11.70;;;;;;;5.48;73.89;99480.03;4890376;28;20035;-75
2021/03/05 11:04:23;;;;;;;21.75;11.95;;;;;;;4.86;73.19;99487.66;4894864;28;20027;-75
2021/03/05 11:06:49;;;;;;;17.92;11.35;;;;;;;5.18;74.01;99490.75;4906742;28;20751;-75
2021/03/05 11:09:15;;;;;;;20.13;11.75;;;;;;;4.82;73.92;99491.88;4903175;28;20035;-75
2021/03/05 11:11:42;;;;;;;20.40;11.27;;;;;;;4.84;73.81;99494.50;4949495;28;20018;-75
2021/03/05 11:14:07;;;;;;;20.15;11.82;;;;;;;4.49;73.72;99487.03;4984283;28;20376;-75
2021/03/05 11:16:33;;;;;;;17.20;11.25;;;;;;;4.84;74.53;99495.34;4986747;28;20030;-75
2021/03/05 11:18:59;;;;;;;30.08;11.60;;;;;;;4.88;72.43;99486.88;4995111;28;20035;-75
2021/03/05 11:21:25;;;;;;;16.08;10.45;;;;;;;5.45;72.81;99497.97;4994818;28;20085;-76
2021/03/05 11:23:51;;;;;;;24.13;13.13;;;;;;;5.33;71.31;99495.25;4995084;28;20159;-76
2021/03/05 11:26:17;;;;;;;18.40;11.77;;;;;;;4.82;71.58;99497.00;4994943;28;20034;-76
2021/03/05 11:28:42;;;;;;;18.52;10.55;;;;;;;4.98;71.95;99499.81;5007656;23;20158;-69
2021/03/05 11:31:09;;;;;;;21.42;11.95;;;;;;;4.66;73.12;99505.31;4975419;28;20093;-67
2021/03/05 11:33:35;;;;;;;19.65;11.73;;;;;;;4.57;73.65;99506.00;4975319;28;20027;-67
2021/03/05 11:36:00;;;;;;;19.20;11.00;;;;;;;4.68;74.31;99507.88;4975374;28;20077;-67
2021/03/05 11:38:26;;;;;;;16.08;11.60;;;;;;;4.67;73.51;99507.03;4975379;28;20085;-66
2021/03/05 11:40:51;;;;;;;20.25;11.77;;;;;;;4.51;73.51;99517.88;4974931;28;20058;-67
2021/03/05 11:43:17;;;;;;;18.73;11.68;;;;;;;4.66;73.28;99520.72;4975252;28;20035;-67
2021/03/05 11:45:42;;;;;;;19.25;12.20;;;;;;;4.53;74.46;99524.75;4983018;28;20031;-67
2021/03/05 11:48:08;;;;;;;18.05;11.75;;;;;;;4.66;72.81;99524.97;4992515;28;20026;-67
2021/03/05 11:50:33;;;;;;;18.85;12.52;;;;;;;4.84;73.83;99515.91;4994138;28;20025;-67
2021/03/05 11:52:59;;;;;;;21.92;13.10;;;;;;;4.95;73.22;99515.19;4994571;28;20034;-67
2021/03/05 11:55:24;;;;;;;17.50;11.38;;;;;;;5.07;71.91;99507.69;4994642;28;20077;-67
2021/03/05 11:57:50;;;;;;;17.85;12.18;;;;;;;5.36;72.32;99515.84;4994302;28;20438;-67
2021/03/05 12:00:16;;;;;;;20.30;11.60;;;;;;;5.26;71.88;99513.97;4994177;28;20034;-67
2021/03/05 12:02:42;;;;;;;20.20;12.63;;;;;;;5.27;71.69;99511.44;4994223;28;20027;-67
2021/03/05 12:05:08;;;;;;;19.65;12.00;;;;;;;5.44;70.14;99514.25;4994155;28;20030;-67
2021/03/05 12:07:33;;;;;;;21.10;11.57;;;;;;;5.54;69.98;99520.38;4994174;28;20045;-67
2021/03/05 12:09:58;;;;;;;32.80;16.65;;;;;;;5.36;71.80;99516.69;4990827;28;20026;-67
2021/03/05 12:12:24;;;;;;;19.63;12.43;;;;;;;5.65;69.68;99513.66;4974595;28;20031;-67
2021/03/05 12:14:49;;;;;;;16.92;11.85;;;;;;;5.46;70.32;99511.69;4981509;28;20026;-67
2021/03/05 12:17:15;;;;;;;19.20;10.77;;;;;;;5.25;69.46;99505.41;4985938;28;20018;-67
2021/03/05 12:19:41;;;;;;;21.23;11.35;;;;;;;5.05;71.43;99509.38;4993603;28;20395;-67
2021/03/05 12:22:07;;;;;;;20.88;11.43;;;;;;;5.04;72.47;99511.09;4993764;28;20472;-67
2021/03/05 12:24:32;;;;;;;22.95;12.43;;;;;;;5.45;72.35;99509.97;4993645;28;20049;-67
2021/03/05 12:26:57;;;;;;;87.75;48.83;;;;;;;5.86;70.53;99508.84;4994139;28;20034;-67
2021/03/05 12:29:23;;;;;;;18.95;12.27;;;;;;;5.93;67.98;99505.50;4993499;28;20041;-67
2021/03/05 12:31:48;;;;;;;18.58;12.23;;;;;;;5.53;70.37;99513.53;4993637;28;20030;-67
2021/03/05 12:34:14;;;;;;;17.55;10.85;;;;;;;5.62;68.15;99511.06;4993540;28;20026;-67
2021/03/05 12:36:39;;;;;;;17.50;11.38;;;;;;;5.46;68.82;99511.69;4993602;28;20084;-67
2021/03/05 12:39:05;;;;;;;18.73;11.13;;;;;;;6.04;68.15;99510.78;4993522;28;20026;-67
2021/03/05 12:41:31;;;;;;;24.50;11.23;;;;;;;5.70;68.64;99519.75;4977686;28;20038;-67
2021/03/05 12:43:56;;;;;;;17.88;11.27;;;;;;;5.52;69.08;99514.38;4973911;28;20035;-67
2021/03/05 12:46:21;;;;;;;18.83;10.88;;;;;;;5.37;68.00;99512.44;4985407;28;20438;-67
2021/03/05 12:48:47;;;;;;;18.45;11.60;;;;;;;5.05;69.34;99523.06;4993182;28;20026;-67
2021/03/05 12:51:12;;;;;;;21.52;12.00;;;;;;;4.78;69.10;99527.75;4993189;28;20180;-67
2021/03/05 12:53:38;;;;;;;21.38;11.90;;;;;;;4.98;70.01;99526.41;4993504;28;20033;-67
2021/03/05 12:56:03;;;;;;;21.27;11.90;;;;;;;4.99;68.85;99519.56;4993429;28;20022;-67
2021/03/05 12:58:29;;;;;;;18.38;11.40;;;;;;;5.01;69.72;99523.00;4993058;28;20031;-67
2021/03/05 13:00:54;;;;;;;18.20;11.27;;;;;;;4.94;69.68;99521.19;4975275;28;20089;-67
2021/03/05 13:03:19;;;;;;;15.88;10.80;;;;;;;4.92;68.25;99527.97;4962629;28;20035;-67
2021/03/05 13:05:45;;;;;;;16.98;10.57;;;;;;;5.25;67.89;99527.66;4963479;28;20037;-67
2021/03/05 13:08:11;;;;;;;17.10;10.32;;;;;;;5.32;66.70;99519.22;4961597;28;20440;-67
2021/03/05 13:10:37;;;;;;;16.23;10.27;;;;;;;5.02;67.59;99519.59;4964908;28;20431;-67
2021/03/05 13:13:02;;;;;;;16.58;10.88;;;;;;;5.52;68.13;99517.81;4962436;28;20033;-67
2021/03/05 13:15:27;;;;;;;16.48;10.10;;;;;;;5.74;65.67;99518.94;4962270;28;20118;-67
2021/03/05 13:17:53;;;;;;;17.92;10.82;;;;;;;5.36;67.05;99516.69;4961760;28;20607;-67
2021/03/05 13:20:18;;;;;;;17.75;11.65;;;;;;;5.45;68.39;99521.09;4962154;28;20033;-67
2021/03/05 13:22:43;;;;;;;21.00;10.95;;;;;;;5.65;67.10;99524.81;4964811;28;20034;-67
2021/03/05 13:25:12;;;;;;;14.70;10.45;;;;;;;5.63;66.79;99521.38;4961855;28;20032;-67
2021/03/05 13:27:37;;;;;;;18.50;11.02;;;;;;;6.13;66.79;99522.88;4958073;28;20050;-67
2021/03/05 13:30:03;;;;;;;16.85;11.38;;;;;;;6.39;66.58;99529.22;4962774;28;20062;-67
2021/03/05 13:32:29;;;;;;;16.63;10.48;;;;;;;6.35;64.39;99530.03;4961990;28;20074;-67
2021/03/05 13:34:54;;;;;;;14.40;9.98;;;;;;;6.38;64.29;99532.63;4961623;28;20126;-67
2021/03/05 13:37:20;;;;;;;18.17;11.63;;;;;;;6.95;63.75;99522.88;4945459;28;20059;-67
2021/03/05 13:39:45;;;;;;;32.33;17.38;;;;;;;7.01;63.13;99532.34;4949863;28;20034;-67
2021/03/05 13:42:10;;;;;;;25.40;11.52;;;;;;;6.48;64.76;99541.31;4945770;28;20652;-68
2021/03/05 13:44:36;;;;;;;17.30;10.93;;;;;;;6.89;65.51;99543.44;4938889;28;20713;-67
2021/03/05 13:47:01;;;;;;;17.17;10.85;;;;;;;7.09;63.87;99541.88;4933015;28;20097;-68
2021/03/05 13:49:26;;;;;;;19.98;11.23;;;;;;;6.91;64.71;99547.75;4925226;28;20031;-67
2021/03/05 13:51:52;;;;;;;17.73;11.63;;;;;;;6.94;64.77;99547.78;4921470;28;20181;-67
2021/03/05 13:54:17;;;;;;;40.78;19.42;;;;;;;6.91;65.91;99552.91;4920578;28;21220;-67
2021/03/05 13:56:42;;;;;;;20.58;12.63;;;;;;;6.68;66.03;99559.56;4910203;28;20051;-67
2021/03/05 13:59:07;;;;;;;21.83;12.98;;;;;;;6.51;66.23;99561.06;4913314;28;20039;-67
2021/03/05 14:01:33;;;;;;;24.80;13.40;;;;;;;6.30;68.17;99560.00;4912815;28;20027;-67
2021/03/05 14:03:58;;;;;;;19.88;12.43;;;;;;;6.31;67.66;99566.84;4906832;28;20093;-67
2021/03/05 14:06:24;;;;;;;16.17;10.95;;;;;;;6.23;68.86;99578.75;4929968;28;20031;-67
2021/03/05 14:08:49;;;;;;;19.00;11.45;;;;;;;6.20;68.31;99581.31;4929723;28;20115;-67
2021/03/05 14:11:14;;;;;;;23.42;12.80;;;;;;;5.70;70.34;99584.00;4933036;28;20029;-67
2021/03/05 14:13:40;;;;;;;23.17;13.68;;;;;;;5.16;68.84;99584.88;4940065;28;20038;-67
2021/03/05 14:16:05;;;;;;;17.35;11.13;;;;;;;5.24;68.75;99588.47;4945434;28;20583;-67
2021/03/05 14:18:31;;;;;;;14.13;10.50;;;;;;;5.08;69.64;99596.75;4949649;28;20026;-67
2021/03/05 14:20:56;;;;;;;17.23;10.63;;;;;;;5.24;69.97;99592.72;4954236;28;20038;-67
2021/03/05 14:23:22;;;;;;;16.73;9.48;;;;;;;4.95;70.72;99608.50;4955319;28;20031;-67
2021/03/05 14:25:48;;;;;;;15.50;9.15;;;;;;;4.66;71.95;99613.09;4965768;28;20511;-67
2021/03/05 14:28:14;;;;;;;14.10;8.50;;;;;;;4.77;71.93;99616.72;4963873;28;20632;-68
2021/03/05 14:30:39;;;;;;;9.55;6.72;;;;;;;4.81;71.39;99623.66;4966912;28;20027;-66
2021/03/05 14:33:05;;;;;;;8.90;5.35;;;;;;;4.22;72.60;99623.34;4962149;28;20023;-66
2021/03/05 14:35:31;;;;;;;8.18;5.43;;;;;;;4.17;72.15;99631.78;4967776;28;20031;-67
2021/03/05 14:37:56;;;;;;;8.27;5.57;;;;;;;3.99;72.98;99632.25;4965051;28;20031;-67
2021/03/05 14:40:23;;;;;;;7.32;5.40;;;;;;;3.83;73.31;99637.03;4964440;28;20031;-67
2021/03/05 14:42:48;;;;;;;7.50;5.30;;;;;;;3.96;73.88;99642.41;4967153;28;20031;-67
2021/03/05 14:45:14;;;;;;;9.25;5.72;;;;;;;3.96;73.78;99642.41;4965412;28;20026;-67
2021/03/05 14:47:40;;;;;;;7.47;5.18;;;;;;;3.91;73.77;99649.13;4964962;28;20472;-67
2021/03/05 14:50:06;;;;;;;8.77;5.78;;;;;;;3.91;73.83;99649.13;4964997;28;20030;-67
2021/03/05 14:52:31;;;;;;;7.47;5.35;;;;;;;3.75;73.86;99648.78;4966585;28;20035;-67
2021/03/05 14:54:56;;;;;;;8.00;5.32;;;;;;;3.74;73.74;99657.31;4964638;28;20038;-67
2021/03/05 14:57:22;;;;;;;7.45;5.15;;;;;;;3.72;74.70;99658.97;4966492;28;20034;-67
2021/03/05 14:59:48;;;;;;;8.95;5.63;;;;;;;3.73;74.48;99660.72;4962735;28;20066;-67
2021/03/05 15:02:13;;;;;;;10.40;6.38;;;;;;;3.76;75.25;99665.03;4965118;28;20117;-67
2021/03/05 15:04:38;;;;;;;9.27;5.40;;;;;;;3.81;74.96;99661.75;4960829;28;20041;-67
2021/03/05 15:07:05;;;;;;;9.15;6.35;;;;;;;3.93;74.92;99668.88;4965674;28;20208;-67
2021/03/05 15:09:30;;;;;;;10.73;6.45;;;;;;;3.71;74.89;99680.28;4963171;28;20476;-67
2021/03/05 15:11:55;;;;;;;9.60;5.82;;;;;;;3.78;75.33;99686.47;4966733;28;20030;-67
2021/03/05 15:14:21;;;;;;;27.38;12.93;;;;;;;3.74;76.00;99684.66;4963929;28;20039;-67
2021/03/05 15:16:46;;;;;;;15.55;10.63;;;;;;;3.73;76.01;99694.03;4963993;28;20060;-69
2021/03/05 15:19:11;;;;;;;8.18;5.85;;;;;;;3.59;76.26;99705.63;4964526;28;20550;-67
2021/03/05 15:21:37;;;;;;;8.93;6.15;;;;;;;3.47;78.60;99713.00;4959691;28;20027;-67
2021/03/05 15:24:02;;;;;;;8.18;5.95;;;;;;;3.39;78.94;99704.28;4966744;28;20026;-67
2021/03/05 15:26:28;;;;;;;11.27;5.80;;;;;;;3.21;78.40;99710.63;4960841;28;20026;-67
2021/03/05 15:28:53;;;;;;;7.53;5.25;;;;;;;3.28;77.65;99714.22;4961709;28;20081;-67
2021/03/05 15:31:18;;;;;;;6.72;4.28;;;;;;;3.28;77.38;99712.53;4966439;28;20031;-67
2021/03/05 15:33:44;;;;;;;4.85;4.28;;;;;;;3.19;76.43;99717.44;4963599;28;20117;-65
2021/03/05 15:36:09;;;;;;;5.78;4.50;;;;;;;3.27;76.70;99721.03;4959967;28;20114;-67
2021/03/05 15:38:35;;;;;;;4.65;3.63;;;;;;;3.29;74.65;99724.53;4966821;28;20027;-67
2021/03/05 15:41:01;;;;;;;4.95;3.72;;;;;;;3.24;75.13;99720.97;4960181;28;20026;-66
2021/03/05 15:43:26;;;;;;;4.80;3.90;;;;;;;3.26;75.01;99728.69;4960685;28;20113;-67
2021/03/05 15:45:51;;;;;;;3.85;3.45;;;;;;;3.16;74.27;99721.59;4961300;28;20034;-67
2021/03/05 15:48:17;;;;;;;6.10;4.03;;;;;;;3.19;74.21;99727.69;4966065;28;20087;-67